createdAt,value
2022-08-14T00:01:58.618Z,100159.73
2022-08-14T00:04:59.567Z,100154.48
2022-08-14T00:07:42.295Z,100152.11
2022-08-14T00:10:50.073Z,100151.55
2022-08-14T00:13:28.997Z,100149.41
2022-08-14T00:16:41.274Z,100147.95
2022-08-14T00:19:21.577Z,100138.57
2022-08-14T00:22:44.216Z,100136.98
2022-08-14T00:25:16.835Z,100136.98
2022-08-14T00:28:17.869Z,100134.11
2022-08-14T00:30:51.187Z,100132.48
2022-08-14T00:33:52.247Z,100132.84
2022-08-14T00:36:36.153Z,100128.73
2022-08-14T00:39:23.293Z,100125.51
2022-08-14T00:42:52.494Z,100125.69
2022-08-14T00:45:20.797Z,100125.90
2022-08-14T00:47:50.361Z,100129.09
2022-08-14T00:50:36.615Z,100128.36
2022-08-14T00:53:10.522Z,100130.70
2022-08-14T00:56:02.356Z,100132.34
2022-08-14T00:59:08.118Z,100142.05
2022-08-14T01:01:46.338Z,100122.20
2022-08-14T01:04:51.015Z,100112.54
2022-08-14T01:07:38.969Z,100106.02
2022-08-14T01:10:53.349Z,100108.29
2022-08-14T01:13:43.091Z,100107.48
2022-08-14T01:16:30.845Z,100099.70
2022-08-14T01:19:20.119Z,100091.02
2022-08-14T01:22:05.123Z,100083.02
2022-08-14T01:24:36.750Z,100076.05
2022-08-14T01:27:36.642Z,100083.20
2022-08-14T01:30:39.801Z,100085.73
2022-08-14T01:33:19.989Z,100086.65
2022-08-14T01:36:05.700Z,100089.86
2022-08-14T01:39:03.836Z,100090.04
2022-08-14T01:42:03.540Z,100096.48
2022-08-14T01:45:17.983Z,100099.77
2022-08-14T01:48:13.718Z,100100.83
2022-08-14T01:51:03.047Z,100109.58
2022-08-14T01:53:45.517Z,100107.27
2022-08-14T01:56:20.946Z,100112.65
2022-08-14T01:58:57.518Z,100109.58
2022-08-14T02:01:51.294Z,100110.06
2022-08-14T02:04:57.799Z,100108.05
2022-08-14T02:08:08.609Z,100113.05
2022-08-14T02:10:52.566Z,100106.15
2022-08-14T02:13:37.130Z,100103.86
2022-08-14T02:16:27.525Z,100102.41
2022-08-14T02:19:10.870Z,100100.85
2022-08-14T02:21:54.664Z,100098.05
2022-08-14T02:24:39.154Z,100094.48
2022-08-14T02:28:21.945Z,100094.34
2022-08-14T02:30:27.297Z,100086.51
2022-08-14T02:33:12.388Z,100080.63
2022-08-14T02:35:56.647Z,100077.42
2022-08-14T02:38:43.114Z,100077.40
2022-08-14T02:41:45.065Z,100068.59
2022-08-14T02:44:41.833Z,100070.03
2022-08-14T02:47:53.870Z,100068.79
2022-08-14T02:50:35.761Z,100065.05
2022-08-14T02:53:31.452Z,100063.78
2022-08-14T02:57:15.546Z,100065.20
2022-08-14T02:59:33.842Z,100060.77
2022-08-14T03:02:49.222Z,100058.99
2022-08-14T03:05:57.430Z,100054.55
2022-08-14T03:08:34.682Z,100053.10
2022-08-14T03:11:34.723Z,100061.70
2022-08-14T03:14:35.212Z,100058.85
2022-08-14T03:17:25.456Z,100050.63
2022-08-14T03:20:06.029Z,100047.82
2022-08-14T03:22:47.036Z,100042.11
2022-08-14T03:25:23.514Z,100037.44
2022-08-14T03:28:32.952Z,100039.08
2022-08-14T03:31:13.249Z,100040.86
2022-08-14T03:34:05.626Z,100040.15
2022-08-14T03:37:29.024Z,100043.23
2022-08-14T03:40:04.466Z,100047.02
2022-08-14T03:42:52.800Z,100046.67
2022-08-14T03:45:35.146Z,100043.10
2022-08-14T03:48:30.701Z,100038.45
2022-08-14T03:51:08.772Z,100039.49
2022-08-14T03:54:20.618Z,100037.33
2022-08-14T03:57:02.427Z,100038.05
2022-08-14T04:00:02.288Z,100038.58
2022-08-14T04:02:37.412Z,100036.78
2022-08-14T04:05:22.973Z,100037.84
2022-08-14T04:08:29.930Z,100043.23
2022-08-14T04:11:10.489Z,100045.91
2022-08-14T04:13:57.943Z,100048.60
2022-08-14T04:16:53.289Z,100050.39
2022-08-14T04:19:36.443Z,100055.96
2022-08-14T04:22:16.651Z,100053.61
2022-08-14T04:24:49.573Z,100060.24
2022-08-14T04:27:33.829Z,100061.67
2022-08-14T04:30:32.619Z,100060.42
2022-08-14T04:33:26.656Z,100058.98
2022-08-14T04:36:02.959Z,100058.08
2022-08-14T04:39:02.127Z,100061.50
2022-08-14T04:42:08.139Z,100067.20
2022-08-14T04:45:04.373Z,100058.60
2022-08-14T04:47:55.873Z,100065.36
2022-08-14T04:51:04.384Z,100068.77
2022-08-14T04:53:44.844Z,100066.62
2022-08-14T04:56:34.021Z,100064.27
2022-08-14T04:59:19.950Z,100058.35
2022-08-14T05:02:16.471Z,100063.69
2022-08-14T05:04:58.782Z,100061.69
2022-08-14T05:07:54.333Z,100062.58
2022-08-14T05:10:57.353Z,100063.45
2022-08-14T05:13:53.187Z,100065.23
2022-08-14T05:17:12.850Z,100064.81
2022-08-14T05:21:57.782Z,100062.77
2022-08-14T05:23:18.949Z,100062.50
2022-08-14T05:26:01.380Z,100060.15
2022-08-14T05:28:50.419Z,100061.05
2022-08-14T05:31:22.592Z,100061.48
2022-08-14T05:34:17.675Z,100057.00
2022-08-14T05:37:02.028Z,100063.31
2022-08-14T05:39:56.434Z,100064.56
2022-08-14T05:42:37.920Z,100064.87
2022-08-14T05:45:14.291Z,100068.77
2022-08-14T05:47:51.066Z,100063.73
2022-08-14T05:50:39.127Z,100061.20
2022-08-14T05:53:11.391Z,100055.30
2022-08-14T05:56:11.057Z,100051.02
2022-08-14T05:58:48.991Z,100052.59
2022-08-14T06:01:39.336Z,100047.23
2022-08-14T06:04:07.957Z,100047.70
2022-08-14T06:06:50.098Z,100050.29
2022-08-14T06:09:51.007Z,100048.05
2022-08-14T06:12:56.348Z,100051.02
2022-08-14T06:15:39.210Z,100049.34
2022-08-14T06:18:20.289Z,100049.06
2022-08-14T06:20:54.621Z,100040.23
2022-08-14T06:23:48.960Z,100037.23
2022-08-14T06:26:30.501Z,100034.70
2022-08-14T06:29:20.929Z,100038.09
2022-08-14T06:32:00.511Z,100044.67
2022-08-14T06:35:16.511Z,100041.73
2022-08-14T06:37:59.288Z,100043.27
2022-08-14T06:40:50.591Z,100045.69
2022-08-14T06:43:32.923Z,100048.19
2022-08-14T06:46:32.306Z,100042.31
2022-08-14T06:49:02.777Z,100047.96
2022-08-14T06:51:51.105Z,100045.17
2022-08-14T06:54:35.805Z,100044.73
2022-08-14T06:57:24.792Z,100047.02
2022-08-14T07:00:07.734Z,100050.77
2022-08-14T07:02:57.399Z,100053.09
2022-08-14T07:05:55.282Z,100046.81
2022-08-14T07:08:40.387Z,100052.95
2022-08-14T07:11:24.041Z,100055.50
2022-08-14T07:14:14.635Z,100046.20
2022-08-14T07:17:31.959Z,100049.25
2022-08-14T07:20:33.691Z,100050.67
2022-08-14T07:23:33.913Z,100045.80
2022-08-14T07:26:17.377Z,100047.76
2022-08-14T07:28:53.494Z,100047.20
2022-08-14T07:31:44.001Z,100047.12
2022-08-14T07:34:35.922Z,100046.63
2022-08-14T07:37:44.537Z,100036.59
2022-08-14T07:40:35.573Z,100037.87
2022-08-14T07:43:14.602Z,100036.19
2022-08-14T07:45:58.643Z,100040.02
2022-08-14T07:48:48.554Z,100036.99
2022-08-14T07:51:20.370Z,100035.81
2022-08-14T07:54:16.548Z,100039.71
2022-08-14T07:57:20.406Z,100039.78
2022-08-14T08:00:30.939Z,100037.52
2022-08-14T08:03:11.075Z,100038.86
2022-08-14T08:05:51.777Z,100042.39
2022-08-14T08:08:27.885Z,100045.15
2022-08-14T08:11:15.176Z,100045.45
2022-08-14T08:13:57.058Z,100043.48
2022-08-14T08:16:39.519Z,100045.56
2022-08-14T08:19:22.269Z,100046.48
2022-08-14T08:22:16.714Z,100044.08
2022-08-14T08:24:45.208Z,100047.23
2022-08-14T08:27:24.575Z,100050.34
2022-08-14T08:30:13.897Z,100044.23
2022-08-14T08:33:04.482Z,100048.65
2022-08-14T08:35:46.906Z,100050.48
2022-08-14T08:39:17.928Z,100049.25
2022-08-14T08:42:08.718Z,100049.08
2022-08-14T08:44:52.822Z,100047.48
2022-08-14T08:47:40.274Z,100048.85
2022-08-14T08:50:31.902Z,100049.23
2022-08-14T08:53:10.888Z,100047.73
2022-08-14T08:55:50.121Z,100050.91
2022-08-14T08:58:31.654Z,100048.50
2022-08-14T09:01:14.377Z,100046.83
2022-08-14T09:04:04.608Z,100043.54
2022-08-14T09:07:10.424Z,100044.44
2022-08-14T09:09:59.961Z,100044.98
2022-08-14T09:12:35.882Z,100045.29
2022-08-14T09:15:27.188Z,100044.86
2022-08-14T09:18:24.044Z,100045.88
2022-08-14T09:21:08.156Z,100045.08
2022-08-14T09:24:26.980Z,100038.57
2022-08-14T09:26:41.563Z,100037.56
2022-08-14T09:29:23.253Z,100035.52
2022-08-14T09:31:57.633Z,100033.81
2022-08-14T09:35:21.949Z,100034.02
2022-08-14T09:38:15.515Z,100035.24
2022-08-14T09:42:20.766Z,100031.72
2022-08-14T09:44:55.735Z,100026.01
2022-08-14T09:47:51.745Z,100025.47
2022-08-14T09:50:50.566Z,100020.31
2022-08-14T09:54:19.135Z,100021.73
2022-08-14T09:56:57.329Z,100020.45
2022-08-14T09:59:59.856Z,100015.95
2022-08-14T10:02:38.681Z,100011.19
2022-08-14T10:05:39.045Z,100008.09
2022-08-14T10:08:28.108Z,100003.39
2022-08-14T10:11:23.230Z,99996.98
2022-08-14T10:14:34.914Z,99996.54
2022-08-14T10:17:33.131Z,99993.64
2022-08-14T10:20:41.074Z,99984.08
2022-08-14T10:23:49.562Z,99987.79
2022-08-14T10:27:00.842Z,99986.77
2022-08-14T10:30:12.222Z,99990.11
2022-08-14T10:32:51.662Z,99991.73
2022-08-14T10:35:31.118Z,99990.02
2022-08-14T10:38:20.319Z,99989.14
2022-08-14T10:41:21.768Z,99985.96
2022-08-14T10:44:52.562Z,99988.39
2022-08-14T10:48:07.846Z,99983.14
2022-08-14T10:50:45.755Z,99983.65
2022-08-14T10:53:29.525Z,99979.71
2022-08-14T10:56:40.698Z,99980.72
2022-08-14T11:00:01.668Z,99977.88
2022-08-14T11:02:56.866Z,99977.81
2022-08-14T11:05:57.299Z,99974.20
2022-08-14T11:08:43.223Z,99968.69
2022-08-14T11:11:37.022Z,99968.80
2022-08-14T11:14:28.194Z,99970.11
2022-08-14T11:16:58.036Z,99973.14
2022-08-14T11:19:39.323Z,99970.84
2022-08-14T11:23:03.186Z,99965.52
2022-08-14T11:25:55.975Z,99964.41
2022-08-14T11:28:50.559Z,99959.00
2022-08-14T11:31:51.738Z,99959.46
2022-08-14T11:34:36.677Z,99954.92
2022-08-14T11:37:33.901Z,99952.12
2022-08-14T11:40:28.612Z,99955.21
2022-08-14T11:43:01.227Z,99953.88
2022-08-14T11:45:44.958Z,99953.14
2022-08-14T11:49:04.216Z,99956.20
2022-08-14T11:51:35.919Z,99958.50
2022-08-14T11:54:58.900Z,99955.21
2022-08-14T11:57:59.630Z,99958.24
2022-08-14T12:00:46.240Z,99958.67
2022-08-14T12:03:46.128Z,99953.17
2022-08-14T12:06:49.180Z,99947.68
2022-08-14T12:09:44.993Z,99943.73
2022-08-14T12:12:47.030Z,99941.27
2022-08-14T12:15:38.023Z,99937.95
2022-08-14T12:18:32.426Z,99932.95
2022-08-14T12:21:24.087Z,99938.77
2022-08-14T12:24:36.174Z,99935.46
2022-08-14T12:27:17.037Z,99935.77
2022-08-14T12:30:01.109Z,99933.73
2022-08-14T12:32:50.887Z,99936.27
2022-08-14T12:35:25.820Z,99935.35
2022-08-14T12:38:04.290Z,99933.53
2022-08-14T12:41:08.021Z,99929.95
2022-08-14T12:44:08.455Z,99928.37
2022-08-14T12:46:46.901Z,99925.08
2022-08-14T12:49:30.374Z,99917.81
2022-08-14T12:52:16.963Z,99918.25
2022-08-14T12:55:10.718Z,99916.08
2022-08-14T12:58:35.487Z,99914.24
2022-08-14T13:01:16.477Z,99914.60
2022-08-14T13:03:52.092Z,99915.52
2022-08-14T13:06:37.661Z,99908.83
2022-08-14T13:09:36.553Z,99899.25
2022-08-14T13:12:39.786Z,99897.11
2022-08-14T13:15:46.756Z,99889.35
2022-08-14T13:18:29.637Z,99885.52
2022-08-14T13:21:16.707Z,99878.11
2022-08-14T13:23:56.764Z,99872.54
2022-08-14T13:27:13.291Z,99869.48
2022-08-14T13:29:47.099Z,99861.20
2022-08-14T13:32:39.148Z,99856.95
2022-08-14T13:35:23.644Z,99855.02
2022-08-14T13:38:15.229Z,99856.30
2022-08-14T13:41:15.368Z,99851.27
2022-08-14T13:43:59.921Z,99848.27
2022-08-14T13:46:39.740Z,99845.12
2022-08-14T13:49:23.996Z,99841.79
2022-08-14T13:52:48.323Z,99844.63
2022-08-14T13:55:05.548Z,99844.33
2022-08-14T13:58:03.604Z,99843.20
2022-08-14T14:01:20.458Z,99841.62
2022-08-14T14:04:12.131Z,99837.78
2022-08-14T14:07:09.780Z,99839.05
2022-08-14T14:10:19.312Z,99838.09
2022-08-14T14:13:06.342Z,99845.85
2022-08-14T14:15:48.694Z,99841.86
2022-08-14T14:18:52.073Z,99835.98
2022-08-14T14:21:34.869Z,99828.40
2022-08-14T14:24:17.316Z,99827.21
2022-08-14T14:26:51.964Z,99827.06
2022-08-14T14:29:26.515Z,99827.52
2022-08-14T14:32:21.491Z,99821.30
2022-08-14T14:35:09.324Z,99818.77
2022-08-14T14:38:03.626Z,99818.58
2022-08-14T14:41:01.098Z,99812.50
2022-08-14T14:43:52.849Z,99812.57
2022-08-14T14:46:53.399Z,99816.41
2022-08-14T14:49:50.873Z,99823.87
2022-08-14T14:52:45.981Z,99824.16
2022-08-14T14:55:43.214Z,99829.64
2022-08-14T14:59:01.743Z,99831.92
2022-08-14T15:01:49.808Z,99830.48
2022-08-14T15:04:47.707Z,99829.70
2022-08-14T15:07:27.498Z,99832.95
2022-08-14T15:10:35.368Z,99836.02
2022-08-14T15:13:22.029Z,99832.09
2022-08-14T15:16:09.900Z,99834.75
2022-08-14T15:19:02.930Z,99830.33
2022-08-14T15:21:42.801Z,99830.75
2022-08-14T15:24:26.776Z,99831.23
2022-08-14T15:27:04.982Z,99830.21
2022-08-14T15:29:45.705Z,99830.06
2022-08-14T15:32:33.035Z,99833.74
2022-08-14T15:35:18.940Z,99835.37
2022-08-14T15:38:08.675Z,99835.06
2022-08-14T15:41:08.542Z,99838.89
2022-08-14T15:44:01.426Z,99839.31
2022-08-14T15:46:45.526Z,99834.63
2022-08-14T15:49:35.553Z,99832.71
2022-08-14T15:52:14.328Z,99827.34
2022-08-14T15:55:15.362Z,99824.77
2022-08-14T15:58:04.958Z,99827.59
2022-08-14T16:00:58.224Z,99827.48
2022-08-14T16:03:47.387Z,99827.23
2022-08-14T16:06:33.606Z,99830.90
2022-08-14T16:09:31.785Z,99838.85
2022-08-14T16:12:13.371Z,99840.44
2022-08-14T16:14:51.365Z,99837.61
2022-08-14T16:17:35.199Z,99840.89
2022-08-14T16:20:41.580Z,99837.92
2022-08-14T16:23:27.734Z,99834.27
2022-08-14T16:26:19.324Z,99832.67
2022-08-14T16:29:15.446Z,99836.59
2022-08-14T16:31:50.919Z,99831.68
2022-08-14T16:34:45.821Z,99831.73
2022-08-14T16:37:35.335Z,99835.46
2022-08-14T16:43:03.868Z,99820.15
2022-08-14T16:46:03.894Z,99810.50
2022-08-14T16:48:58.141Z,99807.30
2022-08-14T16:51:53.179Z,99799.62
2022-08-14T16:54:44.710Z,99795.88
2022-08-14T16:57:27.608Z,99790.09
2022-08-14T17:00:28.095Z,99786.44
2022-08-14T17:03:18.561Z,99785.46
2022-08-14T17:05:50.691Z,99788.48
2022-08-14T17:08:59.964Z,99788.59
2022-08-14T17:11:37.354Z,99791.86
2022-08-14T17:14:15.782Z,99795.70
2022-08-14T17:17:05.589Z,99797.20
2022-08-14T17:19:55.900Z,99793.85
2022-08-14T17:22:53.783Z,99799.63
2022-08-14T17:25:26.702Z,99806.50
2022-08-14T17:28:51.569Z,99817.20
2022-08-14T17:31:15.931Z,99817.23
2022-08-14T17:33:53.954Z,99811.52
2022-08-14T17:36:41.515Z,99814.11
2022-08-14T17:39:19.391Z,99820.04
2022-08-14T17:42:03.726Z,99824.58
2022-08-14T17:45:26.832Z,99824.03
2022-08-14T17:49:10.733Z,99821.09
2022-08-14T17:51:38.203Z,99824.85
2022-08-14T17:54:44.359Z,99828.44
2022-08-14T17:57:46.153Z,99822.02
2022-08-14T18:00:33.192Z,99816.75
2022-08-14T18:03:50.019Z,99813.65
2022-08-14T18:06:38.259Z,99820.23
2022-08-14T18:09:25.042Z,99827.77
2022-08-14T18:12:03.648Z,99831.85
2022-08-14T18:14:48.925Z,99831.25
2022-08-14T18:17:34.036Z,99820.46
2022-08-14T18:21:40.263Z,99809.48
2022-08-14T18:23:51.762Z,99812.64
2022-08-14T18:26:36.898Z,99828.16
2022-08-14T18:29:19.983Z,99847.67
2022-08-14T18:32:01.740Z,99847.90
2022-08-14T18:35:11.289Z,99831.19
2022-08-14T18:38:25.555Z,99849.29
2022-08-14T18:41:41.228Z,99839.69
2022-08-14T18:44:33.262Z,99832.20
2022-08-14T18:47:21.331Z,99833.12
2022-08-14T18:50:03.670Z,99834.11
2022-08-14T18:53:34.598Z,99841.85
2022-08-14T18:56:40.946Z,99836.71
2022-08-14T19:00:23.656Z,99825.10
2022-08-14T19:03:32.919Z,99814.94
2022-08-14T19:06:08.094Z,99814.61
2022-08-14T19:08:53.680Z,99811.09
2022-08-14T19:12:01.605Z,99808.27
2022-08-14T19:14:47.570Z,99808.35
2022-08-14T19:18:10.638Z,99802.77
2022-08-14T19:21:15.014Z,99801.83
2022-08-14T19:24:29.650Z,99795.52
2022-08-14T19:27:23.627Z,99795.85
2022-08-14T19:30:21.223Z,99801.27
2022-08-14T19:33:39.073Z,99813.27
2022-08-14T19:37:15.404Z,99810.92
2022-08-14T19:40:15.648Z,99805.74
2022-08-14T19:43:22.735Z,99808.94
2022-08-14T19:47:02.664Z,99810.70
2022-08-14T19:50:25.041Z,99805.14
2022-08-14T19:53:17.867Z,99799.92
2022-08-14T19:56:12.128Z,99796.73
2022-08-14T19:59:14.878Z,99794.30
2022-08-14T20:02:05.967Z,99789.09
2022-08-14T20:04:57.699Z,99785.38
2022-08-14T20:07:59.507Z,99789.16
2022-08-14T20:12:00.875Z,99788.07
2022-08-14T20:14:35.450Z,99777.49
2022-08-14T20:17:30.985Z,99769.42
2022-08-14T20:20:32.874Z,99763.71
2022-08-14T20:23:38.375Z,99764.96
2022-08-14T20:26:31.220Z,99756.17
2022-08-14T20:29:23.342Z,99758.70
2022-08-14T20:32:25.101Z,99757.80
2022-08-14T20:35:17.378Z,99762.11
2022-08-14T20:38:30.252Z,99764.23
2022-08-14T20:41:34.686Z,99764.69
2022-08-14T20:44:28.706Z,99767.45
2022-08-14T20:47:24.588Z,99771.41
2022-08-14T20:50:16.316Z,99776.14
2022-08-14T20:53:20.379Z,99787.36
2022-08-14T20:56:03.522Z,99795.84
2022-08-14T20:58:44.470Z,99794.89
2022-08-14T21:01:33.089Z,99797.33
2022-08-14T21:04:21.265Z,99800.86
2022-08-14T21:07:33.451Z,99799.13
2022-08-14T21:10:36.139Z,99799.73
2022-08-14T21:14:20.901Z,99800.13
2022-08-14T21:16:58.298Z,99804.46
2022-08-14T21:20:25.527Z,99804.77
2022-08-14T21:23:18.661Z,99800.23
2022-08-14T21:25:57.392Z,99807.31
2022-08-14T21:28:44.757Z,99810.86
2022-08-14T21:31:33.962Z,99809.16
2022-08-14T21:34:27.414Z,99798.55
2022-08-14T21:37:17.431Z,99787.77
2022-08-14T21:40:40.036Z,99780.23
2022-08-14T21:43:31.519Z,99779.23
2022-08-14T21:46:04.313Z,99783.06
2022-08-14T21:48:47.968Z,99775.60
2022-08-14T21:51:55.384Z,99777.23
2022-08-14T21:54:50.438Z,99771.31
2022-08-14T21:57:56.372Z,99767.70
2022-08-14T22:00:44.780Z,99767.01
2022-08-14T22:03:54.430Z,99764.64
2022-08-14T22:06:30.023Z,99752.23
2022-08-14T22:09:32.451Z,99755.12
2022-08-14T22:12:47.257Z,99755.11
2022-08-14T22:15:12.321Z,99755.25
2022-08-14T22:17:56.958Z,99758.45
2022-08-14T22:20:56.799Z,99751.44
2022-08-14T22:23:49.590Z,99750.70
2022-08-14T22:26:32.472Z,99745.96
2022-08-14T22:29:01.452Z,99739.46
2022-08-14T22:32:07.228Z,99734.54
2022-08-14T22:34:52.756Z,99739.44
2022-08-14T22:37:44.470Z,99744.80
2022-08-14T22:40:46.155Z,99745.20
2022-08-14T22:43:39.863Z,99746.69
2022-08-14T22:46:20.987Z,99746.72
2022-08-14T22:48:57.618Z,99746.40
2022-08-14T22:51:48.604Z,99748.83
2022-08-14T22:54:52.925Z,99753.81
2022-08-14T22:57:56.294Z,99754.48
2022-08-14T23:00:41.835Z,99756.02
2022-08-14T23:03:30.895Z,99757.12
2022-08-14T23:07:03.076Z,99758.27
2022-08-14T23:09:02.140Z,99759.73
2022-08-14T23:12:01.418Z,99761.66
2022-08-14T23:14:41.761Z,99764.82
2022-08-14T23:17:27.804Z,99762.58
2022-08-14T23:20:21.700Z,99765.40
2022-08-14T23:23:00.204Z,99763.24
2022-08-14T23:26:47.041Z,99763.20
2022-08-14T23:29:54.268Z,99763.83
2022-08-14T23:32:48.922Z,99763.63
2022-08-14T23:35:59.221Z,99761.31
2022-08-14T23:39:24.321Z,99756.73
2022-08-14T23:42:39.661Z,99753.30
2022-08-14T23:45:49.473Z,99748.98
2022-08-14T23:48:38.591Z,99747.20
2022-08-14T23:52:51.543Z,99746.52
2022-08-14T23:55:45.866Z,99741.39
2022-08-14T23:58:49.239Z,99739.79
